createdAt,value
2023-03-06T00:01:01.066Z,91649.09
2023-03-06T00:06:02.906Z,91651.72
2023-03-06T00:11:04.805Z,91650.84
2023-03-06T00:16:07.143Z,91645.34
2023-03-06T00:21:09.227Z,91653.25
2023-03-06T00:26:10.972Z,91646.28
2023-03-06T00:31:14.912Z,91654.41
2023-03-06T00:36:16.693Z,91644.91
2023-03-06T00:41:19.072Z,91645.25
2023-03-06T00:46:20.894Z,91651.00
2023-03-06T00:51:22.933Z,91615.69
2023-03-06T00:56:25.215Z,91632.09
2023-03-06T01:01:27.037Z,91626.97
2023-03-06T01:06:29.288Z,91625.97
2023-03-06T01:11:31.164Z,91603.38
2023-03-06T01:16:33.110Z,91602.25
2023-03-06T01:21:34.801Z,91603.53
2023-03-06T01:26:36.632Z,91606.06
2023-03-06T01:31:38.549Z,91591.53
2023-03-06T01:36:40.423Z,91590.91
2023-03-06T01:41:42.243Z,91586.28
2023-03-06T01:46:45.168Z,91579.56
2023-03-06T01:51:54.484Z,91586.97
2023-03-06T01:57:01.990Z,91549.91
2023-03-06T02:02:08.591Z,91545.88
2023-03-06T02:07:11.023Z,91554.94
2023-03-06T02:12:16.993Z,91560.22
2023-03-06T02:17:21.082Z,91547.75
2023-03-06T02:22:29.891Z,91548.81
2023-03-06T02:27:32.446Z,91523.56
2023-03-06T02:32:34.394Z,91520.91
2023-03-06T02:37:36.479Z,91544.00
2023-03-06T02:42:46.181Z,91540.31
2023-03-06T02:47:49.468Z,91533.66
2023-03-06T02:52:51.182Z,91538.38
2023-03-06T02:57:52.992Z,91527.53
2023-03-06T03:02:56.081Z,91525.25
2023-03-06T03:07:58.087Z,91527.00
2023-03-06T03:12:59.871Z,91516.97
2023-03-06T03:18:01.900Z,91504.16
2023-03-06T03:23:03.700Z,91514.59
2023-03-06T03:28:05.439Z,91520.66
2023-03-06T03:33:07.390Z,91517.03
2023-03-06T03:38:09.881Z,91505.38
2023-03-06T03:43:12.354Z,91512.34
2023-03-06T03:48:14.985Z,91509.13
2023-03-06T03:53:16.996Z,91515.09
2023-03-06T03:58:19.175Z,91506.47
2023-03-06T04:03:21.583Z,91489.31
2023-03-06T04:08:24.670Z,91502.72
2023-03-06T04:13:27.041Z,91507.97
2023-03-06T04:18:28.973Z,91497.25
2023-03-06T04:23:34.884Z,91507.31
2023-03-06T04:28:38.979Z,91493.66
2023-03-06T04:33:41.112Z,91504.34
2023-03-06T04:38:43.958Z,91460.06
2023-03-06T04:43:46.279Z,91476.25
2023-03-06T04:48:48.109Z,91488.56
2023-03-06T04:53:50.201Z,91475.22
2023-03-06T04:58:52.066Z,91462.78
2023-03-06T05:03:53.878Z,91480.53
2023-03-06T05:08:55.678Z,91488.75
2023-03-06T05:13:57.477Z,91482.13
2023-03-06T05:18:59.369Z,91478.25
2023-03-06T05:24:01.300Z,91471.56
2023-03-06T05:29:03.133Z,91468.63
2023-03-06T05:34:05.017Z,91457.22
2023-03-06T05:39:06.985Z,91453.63
2023-03-06T05:44:08.903Z,91479.66
2023-03-06T05:49:10.851Z,91472.53
2023-03-06T05:54:12.752Z,91475.53
2023-03-06T05:59:15.661Z,91472.88
2023-03-06T06:04:17.502Z,91472.06
2023-03-06T06:09:19.349Z,91471.28
2023-03-06T06:14:21.996Z,91489.94
2023-03-06T06:19:23.961Z,91419.22
2023-03-06T06:24:26.734Z,91474.38
2023-03-06T06:29:28.953Z,91491.38
2023-03-06T06:34:31.953Z,91491.41
2023-03-06T06:39:33.818Z,91495.22
2023-03-06T06:44:36.910Z,91503.22
2023-03-06T06:49:39.574Z,91512.44
2023-03-06T06:54:41.323Z,91515.34
2023-03-06T06:59:43.284Z,91489.38
2023-03-06T07:05:02.032Z,91504.56
2023-03-06T07:10:07.411Z,91486.97
2023-03-06T07:15:12.022Z,91512.38
2023-03-06T07:20:13.797Z,91506.38
2023-03-06T07:25:15.697Z,91493.19
2023-03-06T07:30:17.487Z,91512.41
2023-03-06T07:35:29.446Z,91511.22
2023-03-06T07:40:31.188Z,91515.34
2023-03-06T07:45:33.483Z,91509.84
2023-03-06T07:50:35.310Z,91512.09
2023-03-06T07:55:40.427Z,91522.91
2023-03-06T08:00:42.361Z,91503.50
2023-03-06T08:05:44.860Z,91521.47
2023-03-06T08:10:49.850Z,91520.47
2023-03-06T08:15:51.678Z,91520.66
2023-03-06T08:21:02.698Z,91513.50
2023-03-06T08:26:11.167Z,91504.38
2023-03-06T08:31:28.872Z,91518.88
2023-03-06T08:36:30.999Z,91515.06
2023-03-06T08:41:33.584Z,91517.75
2023-03-06T08:46:36.215Z,91513.13
2023-03-06T08:51:38.007Z,91515.72
2023-03-06T08:56:39.869Z,91516.22
2023-03-06T09:01:41.788Z,91516.44
2023-03-06T09:06:44.161Z,91518.16
2023-03-06T09:11:46.035Z,91532.94
2023-03-06T09:16:47.948Z,91533.25
2023-03-06T09:21:49.819Z,91540.97
2023-03-06T09:26:51.834Z,91541.88
2023-03-06T09:31:53.915Z,91547.81
2023-03-06T09:36:57.597Z,91545.97
2023-03-06T09:41:59.631Z,91538.06
2023-03-06T09:47:22.704Z,91536.94
2023-03-06T09:52:38.650Z,91539.97
2023-03-06T09:57:52.237Z,91513.75
2023-03-06T10:03:10.589Z,91518.53
2023-03-06T10:08:23.918Z,91505.78
2023-03-06T10:13:48.209Z,91526.91
2023-03-06T10:18:51.050Z,91525.72
2023-03-06T10:23:55.115Z,91521.22
2023-03-06T10:28:59.679Z,91527.31
2023-03-06T10:34:16.037Z,91504.31
2023-03-06T10:39:21.023Z,91530.94
2023-03-06T10:44:24.471Z,91529.38
2023-03-06T10:49:37.840Z,91527.03
2023-03-06T10:54:42.353Z,91540.94
2023-03-06T10:59:58.181Z,91532.09
2023-03-06T11:05:01.645Z,91525.06
2023-03-06T11:10:19.866Z,91531.78
2023-03-06T11:15:22.673Z,91527.44
2023-03-06T11:20:52.043Z,91516.28
2023-03-06T11:26:21.143Z,91486.38
2023-03-06T11:31:28.836Z,91501.59
2023-03-06T11:36:39.188Z,91469.13
2023-03-06T11:41:54.171Z,91495.50
2023-03-06T11:47:07.790Z,91483.13
2023-03-06T11:52:40.319Z,91485.13
2023-03-06T11:57:52.758Z,91478.91
2023-03-06T12:03:16.633Z,91474.31
2023-03-06T12:08:46.478Z,91431.09
2023-03-06T12:13:56.779Z,91449.31
2023-03-06T12:19:22.329Z,91440.84
2023-03-06T12:24:55.313Z,91437.63
2023-03-06T12:30:26.405Z,91432.25
2023-03-06T12:35:42.531Z,91350.78
2023-03-06T12:41:05.565Z,91412.22
2023-03-06T12:46:22.532Z,91400.97
2023-03-06T12:51:24.552Z,91394.44
2023-03-06T12:56:28.377Z,91394.63
2023-03-06T13:01:30.033Z,91393.63
2023-03-06T13:06:44.946Z,91398.03
2023-03-06T13:11:57.509Z,91394.03
2023-03-06T13:17:24.066Z,91388.41
2023-03-06T13:22:29.292Z,91380.78
2023-03-06T13:27:53.375Z,91371.53
2023-03-06T13:32:56.346Z,91364.28
2023-03-06T13:37:59.572Z,91360.69
2023-03-06T13:43:14.948Z,91382.19
2023-03-06T13:48:44.855Z,91374.59
2023-03-06T13:54:08.925Z,91375.63
2023-03-06T13:59:35.751Z,91376.56
2023-03-06T14:04:53.295Z,91371.16
2023-03-06T14:10:18.491Z,91366.38
2023-03-06T14:15:23.871Z,91377.81
2023-03-06T14:20:35.324Z,91354.19
2023-03-06T14:25:37.158Z,91367.50
2023-03-06T14:30:49.346Z,91342.34
2023-03-06T14:35:52.654Z,91365.00
2023-03-06T14:40:55.633Z,91375.94
2023-03-06T14:46:02.981Z,91359.13
2023-03-06T14:51:05.836Z,91351.22
2023-03-06T14:56:07.959Z,91369.25
2023-03-06T15:01:13.114Z,91366.56
2023-03-06T15:06:19.905Z,91369.13
2023-03-06T15:11:21.674Z,91379.28
2023-03-06T15:16:30.055Z,91367.34
2023-03-06T15:21:38.026Z,91370.97
2023-03-06T15:26:40.616Z,91359.38
2023-03-06T15:31:44.603Z,91371.28
2023-03-06T15:36:57.648Z,91371.06
2023-03-06T15:42:15.548Z,91380.31
2023-03-06T15:47:17.436Z,91369.78
2023-03-06T15:52:23.523Z,91373.66
2023-03-06T15:57:29.179Z,91349.97
2023-03-06T16:02:31.129Z,91371.91
2023-03-06T16:07:32.806Z,91369.19
2023-03-06T16:12:34.529Z,91388.47
2023-03-06T16:17:36.191Z,91390.78
2023-03-06T16:22:37.908Z,91384.03
2023-03-06T16:27:46.053Z,91395.75
2023-03-06T16:32:47.931Z,91393.91
2023-03-06T16:37:50.018Z,91373.91
2023-03-06T16:42:54.013Z,91398.94
2023-03-06T16:47:58.767Z,91401.13
2023-03-06T16:53:01.255Z,91396.34
2023-03-06T16:58:02.991Z,91409.53
2023-03-06T17:03:04.785Z,91423.84
2023-03-06T17:08:06.616Z,91424.88
2023-03-06T17:13:08.721Z,91445.06
2023-03-06T17:18:10.482Z,91439.66
2023-03-06T17:23:12.294Z,91437.75
2023-03-06T17:28:14.348Z,91444.97
2023-03-06T17:33:16.054Z,91447.97
2023-03-06T17:38:17.779Z,91450.19
2023-03-06T17:43:20.214Z,91447.22
2023-03-06T17:48:21.960Z,91457.09
2023-03-06T17:53:23.973Z,91450.91
2023-03-06T17:58:27.089Z,91456.88
2023-03-06T18:03:28.954Z,91467.81
2023-03-06T18:08:32.175Z,91464.59
2023-03-06T18:13:36.589Z,91457.50
2023-03-06T18:18:38.805Z,91479.66
2023-03-06T18:23:41.245Z,91483.47
2023-03-06T18:28:46.139Z,91491.94
2023-03-06T18:33:49.104Z,91498.50
2023-03-06T18:38:51.508Z,91502.72
2023-03-06T18:43:58.414Z,91509.50
2023-03-06T18:49:00.312Z,91507.09
2023-03-06T18:54:03.975Z,91509.50
2023-03-06T18:59:06.852Z,91522.59
2023-03-06T19:04:08.826Z,91517.50
2023-03-06T19:09:11.390Z,91524.56
2023-03-06T19:14:16.298Z,91519.06
2023-03-06T19:19:18.014Z,91515.44
2023-03-06T19:24:19.773Z,91525.47
2023-03-06T19:29:21.554Z,91516.72
2023-03-06T19:34:23.452Z,91507.03
2023-03-06T19:39:25.703Z,91525.94
2023-03-06T19:44:27.606Z,91519.53
2023-03-06T19:49:29.322Z,91523.78
2023-03-06T19:54:32.625Z,91515.66
2023-03-06T19:59:34.495Z,91529.25
2023-03-06T20:04:36.660Z,91530.59
2023-03-06T20:09:38.622Z,91537.53
2023-03-06T20:14:41.008Z,91532.00
2023-03-06T20:19:42.840Z,91530.06
2023-03-06T20:24:45.175Z,91524.59
2023-03-06T20:29:46.923Z,91525.91
2023-03-06T20:34:48.796Z,91535.47
2023-03-06T20:39:51.521Z,91537.31
2023-03-06T20:44:53.303Z,91544.75
2023-03-06T20:49:55.119Z,91537.22
2023-03-06T20:54:57.107Z,91544.06
2023-03-06T20:59:58.822Z,91554.47
2023-03-06T21:05:00.841Z,91550.56
2023-03-06T21:10:02.780Z,91547.06
2023-03-06T21:15:05.176Z,91529.78
2023-03-06T21:20:07.388Z,91552.50
2023-03-06T21:25:09.137Z,91548.19
2023-03-06T21:30:11.459Z,91543.50
2023-03-06T21:35:13.945Z,91540.72
2023-03-06T21:40:15.745Z,91544.34
2023-03-06T21:45:17.603Z,91535.22
2023-03-06T21:50:19.373Z,91528.91
2023-03-06T21:55:21.106Z,91533.66
2023-03-06T22:00:25.932Z,91513.66
2023-03-06T22:05:27.770Z,91529.66
2023-03-06T22:10:29.555Z,91491.28
2023-03-06T22:15:31.422Z,91510.94
2023-03-06T22:20:33.238Z,91501.47
2023-03-06T22:25:35.239Z,91524.69
2023-03-06T22:30:37.129Z,91531.16
2023-03-06T22:35:38.930Z,91534.84
2023-03-06T22:40:40.720Z,91506.38
2023-03-06T22:45:42.583Z,91533.69
2023-03-06T22:50:44.484Z,91538.19
2023-03-06T22:55:46.278Z,91535.06
2023-03-06T23:00:48.168Z,91527.00
2023-03-06T23:05:50.059Z,91531.69
2023-03-06T23:10:51.873Z,91504.09
2023-03-06T23:16:12.516Z,91515.06
2023-03-06T23:21:34.555Z,91500.00
2023-03-06T23:26:55.020Z,91521.16
2023-03-06T23:31:56.816Z,91511.22
2023-03-06T23:36:58.680Z,91516.50
2023-03-06T23:42:01.437Z,91513.78
2023-03-06T23:47:03.182Z,91520.06
2023-03-06T23:52:05.035Z,91526.22
2023-03-06T23:57:06.878Z,91534.78
